Time;durP1;ratioP1;P1;durP2;ratioP2;P2;SDS_P1;SDS_P2;PMS_P1;PMS_P2;Temp;Humidity;BMP_temperature;BMP_pressure;BME280_temperature;BME280_humidity;BME280_pressure;Samples;Min_cycle;Max_cycle;Signal;HPM_P1;HPM_P2
2022/11/09 00:01:19;;;;;;;4.38;1.90;;;;;;;;;;5033765;28;20203;-75
2022/11/09 00:03:45;;;;;;;7.05;2.20;;;;;;;;;;5033945;28;20045;-75
2022/11/09 00:06:12;;;;;;;3.30;2.10;;;;;;;;;;5014883;28;20125;-75
2022/11/09 00:08:38;;;;;;;8.05;2.72;;;;;;;;;;5014362;28;20072;-75
2022/11/09 00:11:05;;;;;;;5.50;2.22;;;;;;;;;;5015014;28;20065;-76
2022/11/09 00:13:34;;;;;;;5.25;2.20;;;;;;;;;;5032237;28;20124;-76
2022/11/09 00:16:01;;;;;;;4.70;1.80;;;;;;;;;;5028808;28;20457;-76
2022/11/09 00:18:27;;;;;;;5.07;1.92;;;;;;;;;;5024208;28;20078;-76
2022/11/09 00:20:53;;;;;;;6.00;2.10;;;;;;;;;;5014450;28;20045;-76
2022/11/09 00:23:20;;;;;;;5.65;2.10;;;;;;;;;;5013917;28;20045;-76
2022/11/09 00:25:46;;;;;;;6.90;1.92;;;;;;;;;;5013008;28;20052;-76
2022/11/09 00:28:12;;;;;;;5.97;2.10;;;;;;;;;;5014285;28;20100;-76
2022/11/09 00:30:38;;;;;;;6.45;2.20;;;;;;;;;;5013715;28;20046;-76
2022/11/09 00:33:04;;;;;;;6.53;2.65;;;;;;;;;;5023510;28;20041;-76
2022/11/09 00:35:31;;;;;;;7.40;2.35;;;;;;;;;;5001853;28;20095;-76
2022/11/09 00:37:57;;;;;;;8.00;2.65;;;;;;;;;;5001414;28;20087;-76
2022/11/09 00:40:23;;;;;;;5.38;2.40;;;;;;;;;;5034035;28;20072;-76
2022/11/09 00:42:49;;;;;;;6.32;2.30;;;;;;;;;;5033757;28;20042;-76
2022/11/09 00:45:15;;;;;;;8.43;2.28;;;;;;;;;;5015463;28;20049;-76
2022/11/09 00:47:41;;;;;;;7.93;2.28;;;;;;;;;;5015354;28;20045;-76
2022/11/09 00:50:07;;;;;;;4.35;1.90;;;;;;;;;;5019663;28;20117;-76
2022/11/09 00:52:33;;;;;;;7.00;1.98;;;;;;;;;;5014232;28;20130;-76
2022/11/09 00:54:59;;;;;;;5.45;1.95;;;;;;;;;;5013546;28;20069;-76
2022/11/09 00:57:26;;;;;;;4.82;2.10;;;;;;;;;;4980217;28;20053;-76
2022/11/09 00:59:52;;;;;;;4.75;1.90;;;;;;;;;;5013555;28;20166;-76
2022/11/09 01:02:19;;;;;;;8.07;2.00;;;;;;;;;;5013144;28;20050;-76
2022/11/09 01:04:45;;;;;;;5.60;2.17;;;;;;;;;;5023409;28;20096;-76
2022/11/09 01:07:11;;;;;;;5.10;2.60;;;;;;;;;;5013850;28;20042;-76
2022/11/09 01:09:37;;;;;;;4.35;1.67;;;;;;;;;;5013554;28;20387;-76
2022/11/09 01:12:03;;;;;;;3.65;2.00;;;;;;;;;;5013315;28;20483;-76
2022/11/09 01:14:29;;;;;;;2.65;1.80;;;;;;;;;;5013609;28;20393;-76
2022/11/09 01:16:55;;;;;;;3.55;2.00;;;;;;;;;;5013207;28;20443;-76
2022/11/09 01:19:22;;;;;;;7.65;2.60;;;;;;;;;;5023348;28;20100;-76
2022/11/09 01:21:48;;;;;;;6.68;2.70;;;;;;;;;;5033295;28;20072;-76
2022/11/09 01:24:14;;;;;;;7.00;2.80;;;;;;;;;;5033263;28;20048;-76
2022/11/09 01:26:40;;;;;;;6.70;2.88;;;;;;;;;;5032780;28;20053;-76
2022/11/09 01:29:06;;;;;;;7.93;3.10;;;;;;;;;;5033095;28;20037;-76
2022/11/09 01:31:32;;;;;;;6.75;2.90;;;;;;;;;;5033262;28;20041;-76
2022/11/09 01:33:58;;;;;;;6.40;3.13;;;;;;;;;;5032547;28;20041;-76
2022/11/09 01:36:24;;;;;;;8.20;3.75;;;;;;;;;;5030911;28;20038;-76
2022/11/09 01:38:51;;;;;;;6.05;3.40;;;;;;;;;;5029716;28;20072;-76
2022/11/09 01:41:24;;;;;;;5.55;3.30;;;;;;;;;;5017570;28;20038;-76
2022/11/09 01:44:08;;;;;;;7.35;3.20;;;;;;;;;;5003167;28;20145;-76
2022/11/09 01:46:37;;;;;;;7.05;3.00;;;;;;;;;;5021110;28;20050;-76
2022/11/09 01:49:06;;;;;;;6.45;3.10;;;;;;;;;;5018562;28;20037;-76
2022/11/09 01:51:38;;;;;;;10.05;3.17;;;;;;;;;;5017080;28;20042;-77
2022/11/09 01:54:08;;;;;;;8.00;3.00;;;;;;;;;;5027968;28;20340;-77
2022/11/09 01:56:34;;;;;;;11.35;3.95;;;;;;;;;;5036214;28;20045;-77
2022/11/09 01:59:05;;;;;;;8.23;3.28;;;;;;;;;;5014784;28;20045;-77
2022/11/09 02:01:31;;;;;;;7.40;3.10;;;;;;;;;;5016602;28;20049;-77
2022/11/09 02:04:07;;;;;;;7.18;2.90;;;;;;;;;;5028766;28;20349;-77
2022/11/09 02:06:33;;;;;;;;;;;;;;;;;;5036509;28;20112;-77
2022/11/09 02:09:03;;;;;;;6.22;3.20;;;;;;;;;;5024168;28;20320;-76
2022/11/09 02:11:29;;;;;;;6.72;3.25;;;;;;;;;;5016870;28;20155;-76
2022/11/09 02:13:57;;;;;;;5.95;3.00;;;;;;;;;;5016371;28;20357;-76
2022/11/09 02:16:23;;;;;;;7.70;3.20;;;;;;;;;;5016095;28;20038;-76
2022/11/09 02:18:53;;;;;;;8.75;3.33;;;;;;;;;;5016244;28;20488;-76
2022/11/09 02:21:21;;;;;;;7.93;3.42;;;;;;;;;;5033853;28;20045;-76
2022/11/09 02:23:47;;;;;;;6.82;3.35;;;;;;;;;;5027935;28;20063;-76
2022/11/09 02:26:23;;;;;;;7.38;3.00;;;;;;;;;;5032545;28;20164;-76
2022/11/09 02:28:49;;;;;;;9.57;3.25;;;;;;;;;;5035680;28;20128;-76
2022/11/09 02:31:16;;;;;;;8.40;3.15;;;;;;;;;;5001885;28;20049;-76
2022/11/09 02:34:02;;;;;;;6.60;3.20;;;;;;;;;;5035505;28;20125;-76
2022/11/09 02:36:28;;;;;;;7.85;3.53;;;;;;;;;;5026832;28;20053;-76
2022/11/09 02:38:55;;;;;;;9.00;3.70;;;;;;;;;;5019420;28;20050;-76
2022/11/09 02:41:22;;;;;;;7.07;3.85;;;;;;;;;;5015910;28;20369;-76
2022/11/09 02:43:48;;;;;;;6.78;3.67;;;;;;;;;;5017454;28;20038;-76
2022/11/09 02:46:21;;;;;;;8.05;3.95;;;;;;;;;;5026757;28;20046;-76
2022/11/09 02:48:47;;;;;;;10.48;3.70;;;;;;;;;;5016576;28;20124;-76
2022/11/09 02:51:13;;;;;;;8.25;3.75;;;;;;;;;;5017200;28;20049;-76
2022/11/09 02:53:39;;;;;;;9.13;3.65;;;;;;;;;;5035550;28;20050;-76
2022/11/09 02:56:05;;;;;;;8.57;4.28;;;;;;;;;;5035290;28;20049;-76
2022/11/09 02:58:31;;;;;;;9.43;3.70;;;;;;;;;;5023807;28;20045;-76
2022/11/09 03:00:57;;;;;;;7.40;3.55;;;;;;;;;;5024238;28;20038;-76
2022/11/09 03:03:23;;;;;;;12.55;3.92;;;;;;;;;;5033563;28;20498;-76
2022/11/09 03:05:49;;;;;;;11.57;4.50;;;;;;;;;;5018731;28;20041;-76
2022/11/09 03:08:15;;;;;;;8.10;3.40;;;;;;;;;;5011395;28;20373;-76
2022/11/09 03:10:41;;;;;;;10.15;3.60;;;;;;;;;;5015273;28;20058;-76
2022/11/09 03:13:07;;;;;;;10.70;4.40;;;;;;;;;;5015428;28;20088;-76
2022/11/09 03:15:34;;;;;;;9.77;3.70;;;;;;;;;;5015558;28;20124;-76
2022/11/09 03:18:00;;;;;;;14.77;4.63;;;;;;;;;;5022344;28;20045;-76
2022/11/09 03:20:26;;;;;;;9.27;3.72;;;;;;;;;;5034883;28;20037;-76
2022/11/09 03:22:56;;;;;;;7.82;3.60;;;;;;;;;;5035027;28;20124;-76
2022/11/09 03:25:22;;;;;;;9.15;3.72;;;;;;;;;;5034602;28;20079;-76
2022/11/09 03:27:48;;;;;;;7.22;2.92;;;;;;;;;;5005776;28;20042;-76
2022/11/09 03:30:17;;;;;;;9.20;3.15;;;;;;;;;;4998932;28;20054;-76
2022/11/09 03:32:43;;;;;;;8.07;3.30;;;;;;;;;;5033638;28;20068;-76
2022/11/09 03:35:10;;;;;;;11.63;3.40;;;;;;;;;;5034370;28;20099;-76
2022/11/09 03:37:36;;;;;;;9.60;3.47;;;;;;;;;;5017260;28;20107;-76
2022/11/09 03:40:02;;;;;;;8.20;3.20;;;;;;;;;;5029410;28;20116;-76
2022/11/09 03:42:28;;;;;;;7.50;3.00;;;;;;;;;;5034380;28;20454;-76
2022/11/09 03:44:54;;;;;;;11.30;3.15;;;;;;;;;;5033109;28;20598;-76
2022/11/09 03:47:20;;;;;;;9.23;2.95;;;;;;;;;;5011893;28;20480;-76
2022/11/09 03:49:46;;;;;;;10.40;3.15;;;;;;;;;;5014841;28;20046;-76
2022/11/09 03:52:12;;;;;;;8.82;3.28;;;;;;;;;;5015023;28;20042;-76
2022/11/09 03:54:38;;;;;;;9.40;2.90;;;;;;;;;;5019954;28;20095;-76
2022/11/09 03:57:04;;;;;;;10.27;2.95;;;;;;;;;;5033875;28;20045;-76
2022/11/09 03:59:30;;;;;;;9.02;3.10;;;;;;;;;;5026177;28;20045;-76
2022/11/09 04:01:56;;;;;;;9.98;2.88;;;;;;;;;;5014263;28;20045;-76
2022/11/09 04:04:22;;;;;;;9.10;3.08;;;;;;;;;;5014537;28;20054;-76
2022/11/09 04:06:48;;;;;;;9.10;3.47;;;;;;;;;;5013678;28;20104;-76
2022/11/09 04:09:14;;;;;;;9.77;3.22;;;;;;;;;;5028325;28;20049;-76
2022/11/09 04:11:40;;;;;;;11.45;2.88;;;;;;;;;;5024551;28;20087;-76
2022/11/09 04:14:06;;;;;;;9.85;2.63;;;;;;;;;;4996477;28;20046;-76
2022/11/09 04:16:32;;;;;;;7.80;3.20;;;;;;;;;;5014499;28;20049;-76
2022/11/09 04:18:58;;;;;;;10.38;3.22;;;;;;;;;;5014025;28;20144;-76
2022/11/09 04:21:24;;;;;;;9.57;2.97;;;;;;;;;;5014086;28;20045;-76
2022/11/09 04:23:50;;;;;;;17.63;3.13;;;;;;;;;;5020372;28;20080;-76
2022/11/09 04:26:16;;;;;;;9.10;3.17;;;;;;;;;;5033056;28;20065;-76
2022/11/09 04:28:42;;;;;;;15.05;4.22;;;;;;;;;;5033637;28;20053;-76
2022/11/09 04:31:08;;;;;;;11.23;2.75;;;;;;;;;;5033661;28;20046;-76
2022/11/09 04:33:34;;;;;;;14.63;3.85;;;;;;;;;;5031061;28;20137;-76
2022/11/09 04:36:01;;;;;;;9.43;3.22;;;;;;;;;;5014164;28;20045;-76
2022/11/09 04:38:27;;;;;;;14.30;3.78;;;;;;;;;;4981803;28;20512;-76
2022/11/09 04:40:53;;;;;;;7.75;2.97;;;;;;;;;;5027431;28;20125;-76
2022/11/09 04:43:19;;;;;;;7.75;3.00;;;;;;;;;;4996285;28;20073;-76
2022/11/09 04:45:46;;;;;;;10.18;3.22;;;;;;;;;;5013719;28;20042;-76
2022/11/09 04:48:12;;;;;;;8.57;3.20;;;;;;;;;;5013491;28;20104;-76
2022/11/09 04:50:38;;;;;;;11.32;3.05;;;;;;;;;;5008111;28;20389;-76
2022/11/09 04:53:14;;;;;;;13.68;3.15;;;;;;;;;;5013461;28;20049;-76
2022/11/09 04:55:40;;;;;;;10.32;3.20;;;;;;;;;;5014140;28;20069;-76
2022/11/09 04:58:07;;;;;;;11.68;3.40;;;;;;;;;;5032242;28;20095;-76
2022/11/09 05:00:33;;;;;;;9.02;3.17;;;;;;;;;;5033672;28;20048;-76
2022/11/09 05:03:01;;;;;;;8.50;3.13;;;;;;;;;;5033541;28;20121;-76
2022/11/09 05:05:27;;;;;;;8.52;2.83;;;;;;;;;;5035586;28;20405;-77
2022/11/09 05:07:53;;;;;;;7.18;3.05;;;;;;;;;;5037664;28;20045;-77
2022/11/09 05:10:19;;;;;;;11.18;3.20;;;;;;;;;;5019104;28;20462;-77
2022/11/09 05:12:45;;;;;;;8.77;3.35;;;;;;;;;;5030247;28;20053;-77
2022/11/09 05:15:11;;;;;;;12.52;3.35;;;;;;;;;;5016388;28;20088;-77
2022/11/09 05:17:37;;;;;;;9.70;3.33;;;;;;;;;;4999586;28;20503;-77
2022/11/09 05:20:03;;;;;;;13.82;3.03;;;;;;;;;;4999533;28;20045;-77
2022/11/09 05:25:14;;;;;;;12.85;2.97;;;;;;;;;;4999506;28;20495;-77
2022/11/09 05:27:40;;;;;;;12.73;3.13;;;;;;;;;;5007673;28;20042;-77
2022/11/09 05:30:07;;;;;;;7.07;3.10;;;;;;;;;;5019391;28;20048;-77
2022/11/09 05:32:35;;;;;;;9.77;2.88;;;;;;;;;;5019162;28;20442;-77
2022/11/09 05:35:01;;;;;;;9.18;3.08;;;;;;;;;;5020919;28;20057;-76
2022/11/09 05:37:27;;;;;;;7.88;3.10;;;;;;;;;;4982761;28;20050;-77
2022/11/09 05:39:53;;;;;;;10.48;3.33;;;;;;;;;;4999254;28;20038;-77
2022/11/09 05:42:19;;;;;;;11.10;3.40;;;;;;;;;;5005930;28;20052;-77
2022/11/09 05:44:45;;;;;;;7.47;3.63;;;;;;;;;;5008522;28;20495;-77
2022/11/09 05:47:11;;;;;;;8.98;3.13;;;;;;;;;;4999276;28;20046;-77
2022/11/09 05:49:37;;;;;;;10.52;3.25;;;;;;;;;;5016922;28;20133;-76
2022/11/09 05:52:03;;;;;;;7.68;3.05;;;;;;;;;;4998837;28;20077;-77
2022/11/09 05:54:29;;;;;;;9.60;3.45;;;;;;;;;;5016865;28;20416;-77
2022/11/09 05:56:55;;;;;;;8.93;3.15;;;;;;;;;;5012064;28;20532;-77
2022/11/09 05:59:21;;;;;;;7.63;2.78;;;;;;;;;;5017716;28;20041;-77
2022/11/09 06:01:47;;;;;;;7.30;3.15;;;;;;;;;;5035882;28;20127;-77
2022/11/09 06:04:13;;;;;;;9.65;3.63;;;;;;;;;;4988495;28;20089;-77
2022/11/09 06:06:39;;;;;;;8.77;3.10;;;;;;;;;;5026912;28;20053;-77
2022/11/09 06:09:06;;;;;;;12.15;3.33;;;;;;;;;;5018852;28;20096;-77
2022/11/09 06:11:32;;;;;;;10.60;3.40;;;;;;;;;;5005236;28;20057;-77
2022/11/09 06:13:58;;;;;;;13.38;3.20;;;;;;;;;;5016225;28;20044;-77
2022/11/09 06:16:25;;;;;;;11.32;3.60;;;;;;;;;;5016225;28;20045;-77
2022/11/09 06:18:51;;;;;;;7.85;3.50;;;;;;;;;;5016261;28;20042;-77
2022/11/09 06:21:17;;;;;;;10.73;3.60;;;;;;;;;;5015072;28;20052;-77
2022/11/09 06:23:43;;;;;;;8.52;3.28;;;;;;;;;;5026365;28;20056;-77
2022/11/09 06:26:10;;;;;;;10.38;3.63;;;;;;;;;;5018888;28;20080;-77
2022/11/09 06:28:37;;;;;;;9.27;3.70;;;;;;;;;;5017028;28;20476;-77
2022/11/09 06:31:04;;;;;;;8.00;3.03;;;;;;;;;;5035548;28;20045;-76
2022/11/09 06:33:30;;;;;;;10.63;3.55;;;;;;;;;;5001260;28;20044;-76
2022/11/09 06:35:57;;;;;;;6.90;3.20;;;;;;;;;;5017671;28;20041;-77
2022/11/09 06:38:25;;;;;;;8.88;3.67;;;;;;;;;;5029742;28;20053;-77
2022/11/09 06:40:51;;;;;;;8.77;3.17;;;;;;;;;;5015782;28;20049;-76
2022/11/09 06:43:17;;;;;;;12.15;3.65;;;;;;;;;;5009747;28;20179;-76
2022/11/09 06:45:44;;;;;;;9.93;3.38;;;;;;;;;;5035394;28;20045;-76
2022/11/09 06:48:10;;;;;;;8.32;3.15;;;;;;;;;;5035405;28;20041;-76
2022/11/09 06:50:36;;;;;;;6.75;2.85;;;;;;;;;;5017833;28;20128;-76
2022/11/09 06:53:04;;;;;;;11.27;3.30;;;;;;;;;;5034466;28;20045;-76
2022/11/09 06:55:31;;;;;;;13.30;3.78;;;;;;;;;;5014913;28;20092;-76
2022/11/09 06:57:57;;;;;;;11.30;3.75;;;;;;;;;;5016021;28;20535;-76
2022/11/09 07:00:24;;;;;;;8.48;2.60;;;;;;;;;;5015345;28;20042;-76
2022/11/09 07:02:50;;;;;;;6.88;2.65;;;;;;;;;;5019948;28;20084;-77
2022/11/09 07:05:16;;;;;;;11.15;3.63;;;;;;;;;;5035088;28;20081;-76
2022/11/09 07:07:43;;;;;;;8.57;3.80;;;;;;;;;;5032689;28;20048;-76
2022/11/09 07:10:09;;;;;;;8.18;3.20;;;;;;;;;;5014023;28;20086;-76
2022/11/09 07:12:35;;;;;;;7.70;3.97;;;;;;;;;;4996344;28;20054;-76
2022/11/09 07:15:02;;;;;;;5.97;3.20;;;;;;;;;;5014525;28;20054;-76
2022/11/09 07:17:31;;;;;;;9.77;3.67;;;;;;;;;;5014879;28;20042;-76
2022/11/09 07:19:58;;;;;;;9.82;3.90;;;;;;;;;;5014874;28;20053;-76
2022/11/09 07:22:24;;;;;;;7.45;2.72;;;;;;;;;;5015170;28;20373;-76
2022/11/09 07:24:50;;;;;;;9.30;3.22;;;;;;;;;;5034464;28;20046;-76
2022/11/09 07:27:16;;;;;;;9.30;3.58;;;;;;;;;;5004172;28;20045;-76
2022/11/09 07:29:42;;;;;;;7.97;3.22;;;;;;;;;;5034697;28;20049;-76
2022/11/09 07:32:08;;;;;;;10.45;2.90;;;;;;;;;;5029432;28;20403;-76
2022/11/09 07:34:34;;;;;;;13.88;3.63;;;;;;;;;;5014483;28;20042;-76
2022/11/09 07:37:00;;;;;;;10.27;2.95;;;;;;;;;;5022226;28;20041;-76
2022/11/09 07:39:26;;;;;;;10.73;2.90;;;;;;;;;;5028693;28;20053;-76
2022/11/09 07:41:54;;;;;;;8.43;3.17;;;;;;;;;;5014677;28;20050;-76
2022/11/09 07:44:20;;;;;;;6.45;2.75;;;;;;;;;;5014808;28;20057;-76
2022/11/09 07:46:46;;;;;;;7.40;2.75;;;;;;;;;;5014693;28;20136;-76
2022/11/09 07:49:13;;;;;;;6.68;2.90;;;;;;;;;;5014705;28;20038;-76
2022/11/09 07:51:40;;;;;;;9.95;3.30;;;;;;;;;;5025163;28;20461;-77
2022/11/09 07:54:06;;;;;;;9.68;3.65;;;;;;;;;;5044640;28;20064;-77
2022/11/09 07:56:32;;;;;;;7.50;2.97;;;;;;;;;;5018598;28;20124;-77
2022/11/09 07:58:58;;;;;;;11.27;3.78;;;;;;;;;;5020827;28;20071;-77
2022/11/09 08:01:24;;;;;;;12.52;3.50;;;;;;;;;;5045166;28;20131;-77
2022/11/09 08:03:52;;;;;;;10.45;3.10;;;;;;;;;;5033988;28;20054;-77
2022/11/09 08:06:18;;;;;;;10.00;3.10;;;;;;;;;;5051184;28;20075;-77
2022/11/09 08:08:44;;;;;;;11.40;2.90;;;;;;;;;;5040154;28;20053;-77
2022/11/09 08:11:11;;;;;;;10.32;3.25;;;;;;;;;;5029064;28;20034;-77
2022/11/09 08:13:37;;;;;;;14.35;3.65;;;;;;;;;;5044207;28;20056;-77
2022/11/09 08:16:03;;;;;;;9.85;3.22;;;;;;;;;;5037357;28;20068;-77
2022/11/09 08:18:29;;;;;;;8.85;3.15;;;;;;;;;;5033867;28;20523;-77
2022/11/09 08:20:55;;;;;;;9.70;2.78;;;;;;;;;;5030812;28;20483;-76
2022/11/09 08:23:22;;;;;;;10.85;3.08;;;;;;;;;;5014999;28;20058;-77
2022/11/09 08:25:49;;;;;;;9.05;3.45;;;;;;;;;;5039676;28;20042;-78
2022/11/09 08:28:15;;;;;;;9.38;2.83;;;;;;;;;;5042859;28;20045;-78
2022/11/09 08:30:42;;;;;;;10.02;3.00;;;;;;;;;;5024204;28;20055;-78
2022/11/09 08:33:08;;;;;;;8.40;3.08;;;;;;;;;;5004428;28;20524;-78
2022/11/09 08:35:36;;;;;;;8.65;2.90;;;;;;;;;;4996700;28;20076;-78
2022/11/09 08:38:04;;;;;;;7.93;3.15;;;;;;;;;;5013983;28;20100;-78
2022/11/09 08:40:30;;;;;;;8.88;3.33;;;;;;;;;;5013914;28;20488;-78
2022/11/09 08:43:00;;;;;;;6.85;3.08;;;;;;;;;;5014006;28;20468;-78
2022/11/09 08:45:26;;;;;;;12.55;3.40;;;;;;;;;;5014164;28;20072;-79
2022/11/09 08:47:56;;;;;;;8.02;2.85;;;;;;;;;;5007028;28;20057;-82
2022/11/09 08:50:22;;;;;;;7.75;2.80;;;;;;;;;;5017084;28;20059;-77
2022/11/09 08:52:48;;;;;;;14.88;3.20;;;;;;;;;;5033028;28;20038;-77
2022/11/09 08:55:14;;;;;;;10.40;3.28;;;;;;;;;;5015613;28;20129;-77
2022/11/09 08:57:40;;;;;;;10.68;2.65;;;;;;;;;;5033882;28;20049;-80
2022/11/09 09:00:07;;;;;;;11.30;2.63;;;;;;;;;;5036789;28;20091;-79
2022/11/09 09:02:33;;;;;;;12.70;3.20;;;;;;;;;;5025393;28;20408;-80
2022/11/09 09:04:59;;;;;;;10.30;3.40;;;;;;;;;;5014628;28;20050;-77
2022/11/09 09:07:25;;;;;;;7.82;3.63;;;;;;;;;;5014461;28;20038;-77
2022/11/09 09:09:51;;;;;;;10.30;2.92;;;;;;;;;;5029967;28;20042;-77
2022/11/09 09:12:17;;;;;;;9.57;3.22;;;;;;;;;;5015052;28;20072;-77
2022/11/09 09:14:43;;;;;;;12.10;3.85;;;;;;;;;;5038761;28;20394;-77
2022/11/09 09:17:09;;;;;;;8.02;3.30;;;;;;;;;;5040945;28;20547;-77
2022/11/09 09:19:36;;;;;;;8.20;3.20;;;;;;;;;;5030319;28;20046;-77
2022/11/09 09:22:02;;;;;;;9.82;3.40;;;;;;;;;;5016428;28;20167;-77
2022/11/09 09:24:28;;;;;;;10.43;3.22;;;;;;;;;;5030582;28;20072;-77
2022/11/09 09:26:54;;;;;;;14.18;3.85;;;;;;;;;;5032858;28;20033;-77
2022/11/09 09:29:20;;;;;;;10.80;3.10;;;;;;;;;;5023868;28;20481;-77
2022/11/09 09:31:46;;;;;;;12.45;2.95;;;;;;;;;;5020093;28;20447;-77
2022/11/09 09:34:12;;;;;;;7.38;2.95;;;;;;;;;;5032560;28;20509;-77
2022/11/09 09:36:38;;;;;;;10.27;3.70;;;;;;;;;;5032957;28;20472;-77
2022/11/09 09:39:05;;;;;;;10.32;3.42;;;;;;;;;;5020804;28;20037;-77
2022/11/09 09:41:34;;;;;;;9.30;3.15;;;;;;;;;;5030333;28;20104;-77
2022/11/09 09:44:05;;;;;;;14.52;3.22;;;;;;;;;;5029174;28;20046;-77
2022/11/09 09:46:37;;;;;;;12.45;3.58;;;;;;;;;;5029553;28;20077;-77
2022/11/09 09:49:09;;;;;;;11.77;2.92;;;;;;;;;;5032075;28;20091;-77
2022/11/09 09:51:41;;;;;;;9.10;3.10;;;;;;;;;;5032784;28;20061;-77
2022/11/09 09:54:12;;;;;;;7.15;3.38;;;;;;;;;;5032690;28;20045;-77
2022/11/09 09:56:43;;;;;;;9.30;3.15;;;;;;;;;;5033473;28;20042;-77
2022/11/09 09:59:09;;;;;;;7.88;2.80;;;;;;;;;;5035510;28;20052;-77
2022/11/09 10:01:45;;;;;;;10.27;2.72;;;;;;;;;;5018946;28;20199;-81
2022/11/09 10:04:18;;;;;;;8.35;3.00;;;;;;;;;;5026676;28;20056;-79
2022/11/09 10:06:57;;;;;;;7.90;2.70;;;;;;;;;;5036529;28;20034;-77
2022/11/09 10:09:23;;;;;;;10.50;3.15;;;;;;;;;;5029448;28;20045;-77
2022/11/09 10:11:55;;;;;;;8.02;2.85;;;;;;;;;;5036558;28;20116;-77
2022/11/09 10:14:27;;;;;;;12.70;3.30;;;;;;;;;;5025401;28;20038;-77
2022/11/09 10:17:06;;;;;;;12.23;3.35;;;;;;;;;;5023480;28;20046;-77
2022/11/09 10:19:45;;;;;;;10.98;3.05;;;;;;;;;;5036302;28;20052;-77
2022/11/09 10:22:18;;;;;;;9.63;3.60;;;;;;;;;;5036607;28;20041;-78
2022/11/09 10:25:02;;;;;;;9.98;3.50;;;;;;;;;;5036130;28;20128;-79
2022/11/09 10:27:34;;;;;;;9.20;3.50;;;;;;;;;;5037113;28;20487;-79
2022/11/09 10:30:01;;;;;;;13.40;4.10;;;;;;;;;;5028490;28;20058;-77
2022/11/09 10:32:30;;;;;;;9.43;3.88;;;;;;;;;;5018296;28;20038;-77
2022/11/09 10:35:01;;;;;;;14.48;3.95;;;;;;;;;;5037050;28;20041;-77
2022/11/09 10:37:40;;;;;;;10.75;3.70;;;;;;;;;;5035561;28;20530;-80
2022/11/09 10:40:19;;;;;;;9.15;3.63;;;;;;;;;;5000017;28;20495;-77
2022/11/09 10:42:50;;;;;;;11.73;3.92;;;;;;;;;;5035619;28;20045;-77
2022/11/09 10:45:28;;;;;;;9.18;4.30;;;;;;;;;;5035013;28;20037;-77
2022/11/09 10:47:54;;;;;;;9.70;4.38;;;;;;;;;;5035689;28;20042;-77
2022/11/09 10:50:23;;;;;;;16.63;4.90;;;;;;;;;;5024840;28;20044;-77
2022/11/09 10:52:49;;;;;;;13.45;4.63;;;;;;;;;;5033089;28;20044;-77
2022/11/09 10:55:15;;;;;;;16.75;4.95;;;;;;;;;;5018460;28;20380;-77
2022/11/09 10:57:50;;;;;;;12.40;4.68;;;;;;;;;;5035457;28;20076;-77
2022/11/09 11:00:18;;;;;;;10.68;4.72;;;;;;;;;;5017424;28;20403;-77
2022/11/09 11:02:46;;;;;;;10.75;4.90;;;;;;;;;;5017397;28;20050;-77
2022/11/09 11:05:18;;;;;;;14.40;5.55;;;;;;;;;;5022299;28;20053;-77
2022/11/09 11:07:45;;;;;;;12.20;5.25;;;;;;;;;;5035193;28;20113;-77
2022/11/09 11:10:18;;;;;;;11.25;5.25;;;;;;;;;;5033965;28;20555;-77
2022/11/09 11:13:16;;;;;;;11.77;5.32;;;;;;;;;;5022283;28;20049;-77
2022/11/09 11:15:42;;;;;;;9.40;4.40;;;;;;;;;;5015151;28;20049;-77
2022/11/09 11:18:22;;;;;;;10.23;5.05;;;;;;;;;;5035081;28;20050;-77
2022/11/09 11:21:03;;;;;;;10.30;4.38;;;;;;;;;;5034727;28;20531;-78
2022/11/09 11:23:29;;;;;;;8.82;4.95;;;;;;;;;;5034694;28;20125;-77
2022/11/09 11:25:55;;;;;;;14.25;4.95;;;;;;;;;;5034786;28;20144;-77
2022/11/09 11:28:25;;;;;;;10.10;4.90;;;;;;;;;;5028906;28;20038;-78
2022/11/09 11:30:51;;;;;;;10.07;4.63;;;;;;;;;;4989884;28;20052;-78
2022/11/09 11:33:20;;;;;;;10.10;4.75;;;;;;;;;;5031151;28;20041;-79
2022/11/09 11:35:54;;;;;;;12.65;5.57;;;;;;;;;;5032905;28;20045;-78
2022/11/09 11:38:25;;;;;;;12.93;6.18;;;;;;;;;;5034483;28;20056;-78
2022/11/09 11:41:03;;;;;;;13.10;5.07;;;;;;;;;;5034485;28;20053;-78
2022/11/09 11:43:48;;;;;;;12.82;4.68;;;;;;;;;;5032716;28;20137;-78
2022/11/09 11:46:25;;;;;;;11.00;5.30;;;;;;;;;;5027884;28;20258;-78
2022/11/09 11:48:57;;;;;;;12.82;4.80;;;;;;;;;;5031924;28;20038;-78
2022/11/09 11:51:53;;;;;;;12.90;4.65;;;;;;;;;;5034283;28;20116;-78
2022/11/09 11:54:42;;;;;;;7.68;5.05;;;;;;;;;;4967227;28;20051;-78
2022/11/09 11:57:14;;;;;;;17.73;5.80;;;;;;;;;;4951287;29;20059;-79
2022/11/09 11:59:43;;;;;;;11.48;5.63;;;;;;;;;;4961387;28;20583;-79
2022/11/09 12:02:21;;;;;;;10.20;5.15;;;;;;;;;;4973802;28;20501;-78
2022/11/09 12:05:05;;;;;;;12.93;5.50;;;;;;;;;;4935265;29;20123;-78
2022/11/09 12:07:50;;;;;;;13.77;5.85;;;;;;;;;;4934938;29;20481;-79
2022/11/09 12:10:38;;;;;;;12.80;6.20;;;;;;;;;;4935736;29;20055;-79
2022/11/09 12:13:09;;;;;;;11.32;6.80;;;;;;;;;;4934896;29;20131;-79
2022/11/09 12:15:54;;;;;;;10.75;5.80;;;;;;;;;;4922816;29;20109;-78
2022/11/09 12:18:20;;;;;;;13.05;6.85;;;;;;;;;;4953739;29;20062;-78
2022/11/09 12:21:01;;;;;;;11.70;6.25;;;;;;;;;;4966429;28;20040;-78
2022/11/09 12:23:32;;;;;;;10.93;5.78;;;;;;;;;;4962174;28;20051;-78
2022/11/09 12:26:08;;;;;;;9.63;5.80;;;;;;;;;;4961011;28;20087;-77
2022/11/09 12:28:48;;;;;;;11.55;5.78;;;;;;;;;;4947277;29;20052;-77
2022/11/09 12:31:20;;;;;;;8.23;5.45;;;;;;;;;;5011763;28;20045;-77
2022/11/09 12:33:50;;;;;;;10.55;5.93;;;;;;;;;;5023271;28;20167;-77
2022/11/09 12:36:20;;;;;;;9.13;5.13;;;;;;;;;;5012706;28;20049;-77
2022/11/09 12:38:57;;;;;;;9.25;4.25;;;;;;;;;;5022922;28;20420;-78
2022/11/09 12:41:25;;;;;;;9.65;4.00;;;;;;;;;;4998346;28;20496;-77
2022/11/09 12:43:54;;;;;;;5.80;3.50;;;;;;;;;;5030064;28;20120;-78
2022/11/09 12:46:25;;;;;;;5.38;3.25;;;;;;;;;;5033606;28;20049;-77
2022/11/09 12:48:51;;;;;;;3.60;2.30;;;;;;;;;;5028412;28;20461;-77
2022/11/09 12:51:18;;;;;;;4.95;2.42;;;;;;;;;;5014849;28;20432;-77
2022/11/09 12:53:44;;;;;;;3.85;2.50;;;;;;;;;;5015012;28;20442;-77
2022/11/09 12:56:13;;;;;;;2.60;1.73;;;;;;;;;;5033384;28;20487;-77
2022/11/09 12:58:39;;;;;;;2.83;1.90;;;;;;;;;;5033158;28;20128;-78
2022/11/09 13:01:07;;;;;;;4.07;1.77;;;;;;;;;;5027831;28;20407;-78
2022/11/09 13:03:34;;;;;;;3.17;1.73;;;;;;;;;;5013084;28;20065;-78
2022/11/09 13:06:10;;;;;;;2.92;1.60;;;;;;;;;;5028750;28;20053;-79
2022/11/09 13:08:37;;;;;;;4.05;1.58;;;;;;;;;;5014122;28;20576;-78
2022/11/09 13:11:10;;;;;;;5.15;1.67;;;;;;;;;;5014276;28;20053;-78
2022/11/09 13:13:36;;;;;;;3.50;1.50;;;;;;;;;;5021821;28;20050;-81
2022/11/09 13:16:09;;;;;;;2.67;1.55;;;;;;;;;;5035459;28;20033;-79
2022/11/09 13:18:35;;;;;;;4.10;1.55;;;;;;;;;;5015423;28;20038;-79
2022/11/09 13:21:19;;;;;;;3.85;1.90;;;;;;;;;;5032261;28;20046;-79
2022/11/09 13:23:46;;;;;;;4.35;2.60;;;;;;;;;;5015875;28;20038;-79
2022/11/09 13:26:24;;;;;;;2.90;1.90;;;;;;;;;;5034342;28;20148;-79
2022/11/09 13:29:08;;;;;;;4.47;1.80;;;;;;;;;;5014150;28;20049;-79
2022/11/09 13:31:53;;;;;;;5.55;2.00;;;;;;;;;;5015471;28;20499;-79
2022/11/09 13:34:38;;;;;;;4.82;2.15;;;;;;;;;;5035072;28;20132;-79
2022/11/09 13:37:23;;;;;;;4.43;2.10;;;;;;;;;;5037449;28;20079;-79
2022/11/09 13:39:49;;;;;;;4.32;2.03;;;;;;;;;;5017788;28;20045;-79
2022/11/09 13:42:34;;;;;;;5.25;2.20;;;;;;;;;;5029665;28;20418;-79
2022/11/09 13:45:18;;;;;;;3.88;2.35;;;;;;;;;;5017828;28;20152;-79
2022/11/09 13:47:51;;;;;;;5.47;2.33;;;;;;;;;;4983070;28;20504;-79
2022/11/09 13:50:27;;;;;;;7.47;2.70;;;;;;;;;;5017336;28;20368;-79
2022/11/09 13:52:55;;;;;;;5.88;2.33;;;;;;;;;;5033101;28;20480;-79
2022/11/09 13:55:38;;;;;;;6.72;3.15;;;;;;;;;;5007265;28;20045;-78
2022/11/09 13:58:09;;;;;;;6.63;2.70;;;;;;;;;;5018731;28;20379;-78
2022/11/09 14:00:35;;;;;;;7.45;3.17;;;;;;;;;;5036149;28;20049;-78
2022/11/09 14:03:05;;;;;;;4.75;2.60;;;;;;;;;;5036303;28;20065;-78
2022/11/09 14:05:33;;;;;;;6.15;2.25;;;;;;;;;;5027862;28;20504;-78
2022/11/09 14:08:00;;;;;;;5.03;2.90;;;;;;;;;;5031939;28;20045;-78
2022/11/09 14:10:34;;;;;;;9.90;2.80;;;;;;;;;;5024738;28;20108;-78
2022/11/09 14:13:19;;;;;;;8.70;3.40;;;;;;;;;;5017971;28;20056;-78
2022/11/09 14:15:50;;;;;;;9.00;3.33;;;;;;;;;;5019352;28;20125;-78
2022/11/09 14:18:25;;;;;;;6.38;3.05;;;;;;;;;;5035875;28;20498;-78
2022/11/09 14:21:07;;;;;;;7.03;3.03;;;;;;;;;;4997979;28;20472;-78
2022/11/09 14:23:34;;;;;;;9.68;3.58;;;;;;;;;;5033116;28;20059;-78
2022/11/09 14:26:06;;;;;;;7.25;4.43;;;;;;;;;;5031144;28;20104;-78
2022/11/09 14:28:33;;;;;;;6.68;2.97;;;;;;;;;;5016743;28;20069;-78
2022/11/09 14:31:00;;;;;;;9.95;5.70;;;;;;;;;;5033856;28;20055;-78
2022/11/09 14:33:28;;;;;;;9.77;2.90;;;;;;;;;;5035950;28;20049;-78
2022/11/09 14:35:57;;;;;;;7.18;3.22;;;;;;;;;;5036251;28;20045;-78
2022/11/09 14:38:28;;;;;;;10.18;2.90;;;;;;;;;;5036600;28;20045;-78
2022/11/09 14:40:54;;;;;;;6.22;3.17;;;;;;;;;;5037093;28;20662;-78
2022/11/09 14:43:24;;;;;;;5.65;2.70;;;;;;;;;;5017501;28;20070;-78
2022/11/09 14:46:00;;;;;;;5.80;2.53;;;;;;;;;;5029574;28;20529;-78
2022/11/09 14:48:27;;;;;;;7.88;2.20;;;;;;;;;;5020086;28;20049;-78
2022/11/09 14:50:55;;;;;;;7.43;3.50;;;;;;;;;;5035932;28;20514;-78